Time,TemperatureF,DewpointF,PressureIn,WindDirection,WindDirectionDegrees,WindSpeedMPH,WindSpeedGustMPH,Humidity,HourlyPrecipIn,Conditions,Clouds,dailyrainin,SoftwareType,DateUTC
2013-03-08 00:02:00,55.7,54.0,29.80,South,181,0.0,0.0,94,0.00,,,0.00,weatherlink.com 1.10,2013-03-07 23:02:00,
2013-03-08 00:17:00,55.7,54.0,29.79,South,175,0.0,1.0,94,0.00,,,0.00,weatherlink.com 1.10,2013-03-07 23:17:00,
2013-03-08 00:32:00,55.7,54.0,29.79,NNE,28,0.0,1.0,94,0.00,,,0.00,weatherlink.com 1.10,2013-03-07 23:32:00,
2013-03-08 00:47:00,55.6,54.0,29.79,SSE,168,0.0,1.0,94,0.00,,,0.00,weatherlink.com 1.10,2013-03-07 23:47:00,
2013-03-08 01:02:00,55.5,54.0,29.79,South,179,0.0,0.0,94,0.00,,,0.00,weatherlink.com 1.10,2013-03-08 00:02:00,
2013-03-08 01:17:00,55.5,54.0,29.79,South,172,0.0,0.0,94,0.00,,,0.00,weatherlink.com 1.10,2013-03-08 00:17:00,
2013-03-08 01:32:00,55.6,54.0,29.78,SW,233,0.0,1.0,94,0.00,,,0.00,weatherlink.com 1.10,2013-03-08 00:32:00,
2013-03-08 01:47:00,55.7,54.0,29.78,SSE,155,0.0,1.0,93,0.00,,,0.00,weatherlink.com 1.10,2013-03-08 00:47:00,
2013-03-08 02:02:00,55.8,54.0,29.78,SSE,168,0.0,1.0,92,0.00,,,0.00,weatherlink.com 1.10,2013-03-08 01:02:00,
2013-03-08 02:17:00,55.7,54.0,29.78,South,177,0.0,1.0,92,0.00,,,0.00,weatherlink.com 1.10,2013-03-08 01:17:00,
2013-03-08 02:32:00,55.6,53.0,29.78,South,176,0.0,1.0,92,0.00,,,0.00,weatherlink.com 1.10,2013-03-08 01:32:00,
2013-03-08 02:47:00,55.5,53.0,29.78,South,190,0.0,1.0,92,0.00,,,0.00,weatherlink.com 1.10,2013-03-08 01:47:00,
2013-03-08 03:02:00,55.5,53.0,29.78,South,179,0.0,1.0,92,0.00,,,0.00,weatherlink.com 1.10,2013-03-08 02:02:00,
2013-03-08 03:17:00,55.3,53.0,29.77,South,175,0.0,0.0,92,0.00,,,0.00,weatherlink.com 1.10,2013-03-08 02:17:00,
2013-03-08 03:32:00,55.2,53.0,29.77,South,175,0.0,1.0,93,0.00,,,0.00,weatherlink.com 1.10,2013-03-08 02:32:00,
2013-03-08 03:47:00,55.3,53.0,29.77,SSE,167,0.0,0.0,93,0.00,,,0.00,weatherlink.com 1.10,2013-03-08 02:47:00,
2013-03-08 04:02:00,55.3,54.0,29.77,South,181,0.0,1.0,94,0.00,,,0.00,weatherlink.com 1.10,2013-03-08 03:02:00,
2013-03-08 04:17:00,55.3,54.0,29.77,SSE,164,0.0,1.0,94,0.00,,,0.00,weatherlink.com 1.10,2013-03-08 03:17:00,
2013-03-08 04:32:00,55.3,54.0,29.77,SSW,193,0.0,1.0,94,0.00,,,0.00,weatherlink.com 1.10,2013-03-08 03:32:00,
2013-03-08 04:47:00,55.4,54.0,29.77,South,179,0.0,1.0,94,0.00,,,0.00,weatherlink.com 1.10,2013-03-08 03:47:00,
2013-03-08 05:02:00,55.4,54.0,29.77,South,175,0.0,1.0,94,0.00,,,0.00,weatherlink.com 1.10,2013-03-08 04:02:00,
2013-03-08 05:17:00,55.4,54.0,29.77,South,176,0.0,0.0,94,0.00,,,0.00,weatherlink.com 1.10,2013-03-08 04:17:00,
2013-03-08 05:32:00,55.4,54.0,29.77,South,174,0.0,0.0,94,0.00,,,0.00,weatherlink.com 1.10,2013-03-08 04:32:00,
2013-03-08 05:47:00,55.4,54.0,29.77,SSE,163,0.0,1.0,94,0.00,,,0.00,weatherlink.com 1.10,2013-03-08 04:47:00,
2013-03-08 06:02:00,55.4,54.0,29.77,South,171,0.0,0.0,94,0.00,,,0.00,weatherlink.com 1.10,2013-03-08 05:02:00,
2013-03-08 06:17:00,55.4,54.0,29.77,South,173,0.0,1.0,94,0.00,,,0.00,weatherlink.com 1.10,2013-03-08 05:17:00,
2013-03-08 06:32:00,55.4,54.0,29.76,South,190,0.0,1.0,94,0.00,,,0.00,weatherlink.com 1.10,2013-03-08 05:32:00,
2013-03-08 06:47:00,55.4,54.0,29.76,SSE,154,0.0,1.0,94,0.00,,,0.00,weatherlink.com 1.10,2013-03-08 05:47:00,
2013-03-08 07:02:00,55.4,54.0,29.76,SSE,167,0.0,1.0,94,0.00,,,0.00,weatherlink.com 1.10,2013-03-08 06:02:00,
2013-03-08 07:17:00,55.4,54.0,29.76,SSE,168,0.0,1.0,93,0.00,,,0.00,weatherlink.com 1.10,2013-03-08 06:17:00,
2013-03-08 07:32:00,55.5,54.0,29.76,NE,39,0.0,1.0,93,0.00,,,0.00,weatherlink.com 1.10,2013-03-08 06:32:00,
2013-03-08 07:47:00,55.9,54.0,29.76,South,183,0.0,1.0,92,0.00,,,0.00,weatherlink.com 1.10,2013-03-08 06:47:00,
2013-03-08 08:02:00,56.3,54.0,29.76,SSE,168,0.0,1.0,91,0.00,,,0.00,weatherlink.com 1.10,2013-03-08 07:02:00,
2013-03-08 08:17:00,56.7,54.0,29.76,South,170,0.0,2.0,90,0.00,,,0.00,weatherlink.com 1.10,2013-03-08 07:17:00,
2013-03-08 08:32:00,57.0,54.0,29.77,South,171,0.0,1.0,90,0.00,,,0.00,weatherlink.com 1.10,2013-03-08 07:32:00,
2013-03-08 08:47:00,57.3,54.0,29.76,SSW,193,0.0,1.0,89,0.00,,,0.00,weatherlink.com 1.10,2013-03-08 07:47:00,
2013-03-08 09:03:00,57.8,54.0,29.76,ENE,72,0.0,2.0,88,0.00,,,0.00,weatherlink.com 1.10,2013-03-08 08:03:00,
2013-03-08 09:18:00,58.2,54.0,29.76,ESE,106,0.0,2.0,86,0.00,,,0.00,weatherlink.com 1.10,2013-03-08 08:18:00,
2013-03-08 09:33:00,58.0,54.0,29.77,South,169,0.0,1.0,86,0.00,,,0.00,weatherlink.com 1.10,2013-03-08 08:33:00,
2013-03-08 09:48:00,57.9,54.0,29.77,ENE,77,0.0,1.0,87,0.00,,,0.00,weatherlink.com 1.10,2013-03-08 08:48:00,
2013-03-08 10:03:00,58.1,55.0,29.76,SW,225,0.0,1.0,88,0.00,,,0.00,weatherlink.com 1.10,2013-03-08 09:03:00,
2013-03-08 10:19:00,58.5,54.0,29.77,South,176,0.0,1.0,86,0.00,,,0.00,weatherlink.com 1.10,2013-03-08 09:19:00,
2013-03-08 10:33:00,58.7,54.0,29.76,South,185,0.0,2.0,85,0.00,,,0.00,weatherlink.com 1.10,2013-03-08 09:33:00,
2013-03-08 10:48:00,58.7,54.0,29.76,South,169,0.0,1.0,83,0.00,,,0.00,weatherlink.com 1.10,2013-03-08 09:48:00,
2013-03-08 11:03:00,58.4,54.0,29.76,NE,49,0.0,1.0,86,0.00,,,0.00,weatherlink.com 1.10,2013-03-08 10:03:00,
2013-03-08 11:18:00,58.1,54.0,29.76,South,172,0.0,1.0,87,0.00,,,0.00,weatherlink.com 1.10,2013-03-08 10:18:00,
2013-03-08 11:33:00,58.3,55.0,29.76,South,182,0.0,1.0,87,0.00,,,0.00,weatherlink.com 1.10,2013-03-08 10:33:00,
2013-03-08 11:48:00,58.4,55.0,29.76,South,174,0.0,1.0,87,0.00,,,0.00,weatherlink.com 1.10,2013-03-08 10:48:00,
2013-03-08 12:03:00,58.3,55.0,29.75,NNE,32,0.0,1.0,88,0.00,,,0.00,weatherlink.com 1.10,2013-03-08 11:03:00,
2013-03-08 12:18:00,58.6,55.0,29.74,South,176,0.0,1.0,88,0.00,,,0.00,weatherlink.com 1.10,2013-03-08 11:18:00,
2013-03-08 12:33:00,59.4,55.0,29.74,South,169,0.0,2.0,84,0.00,,,0.00,weatherlink.com 1.10,2013-03-08 11:33:00,
2013-03-08 12:48:00,59.0,55.0,29.72,ENE,71,0.0,1.0,87,0.00,,,0.00,weatherlink.com 1.10,2013-03-08 11:48:00,
2013-03-08 13:03:00,58.0,55.0,29.70,WSW,252,0.0,3.0,89,0.00,,,0.00,weatherlink.com 1.10,2013-03-08 12:03:00,
2013-03-08 13:18:00,58.0,55.0,29.72,South,176,0.0,0.0,90,0.00,,,0.00,weatherlink.com 1.10,2013-03-08 12:18:00,
2013-03-08 13:33:00,58.1,56.0,29.70,East,98,0.0,1.0,91,0.00,,,0.00,weatherlink.com 1.10,2013-03-08 12:33:00,
2013-03-08 13:48:00,57.2,55.0,29.68,East,79,0.0,3.0,91,0.01,,,0.01,weatherlink.com 1.10,2013-03-08 12:48:00,
2013-03-08 14:03:00,56.8,55.0,29.67,South,181,0.0,1.0,92,0.01,,,0.01,weatherlink.com 1.10,2013-03-08 13:03:00,
2013-03-08 14:18:00,57.0,55.0,29.68,South,169,0.0,1.0,91,0.01,,,0.01,weatherlink.com 1.10,2013-03-08 13:18:00,
2013-03-08 14:33:00,57.1,55.0,29.67,SSW,200,0.0,2.0,91,0.01,,,0.01,weatherlink.com 1.10,2013-03-08 13:33:00,
2013-03-08 14:48:00,57.1,54.0,29.66,ENE,78,1.0,1.0,90,0.00,,,0.01,weatherlink.com 1.10,2013-03-08 13:48:00,
2013-03-08 15:03:00,57.3,54.0,29.66,West,271,0.0,2.0,89,0.00,,,0.01,weatherlink.com 1.10,2013-03-08 14:03:00,
2013-03-08 15:18:00,57.5,54.0,29.67,South,172,0.0,0.0,87,0.00,,,0.01,weatherlink.com 1.10,2013-03-08 14:18:00,
2013-03-08 15:33:00,58.0,54.0,29.66,South,180,0.0,0.0,85,0.00,,,0.01,weatherlink.com 1.10,2013-03-08 14:33:00,
2013-03-08 15:48:00,58.3,54.0,29.67,South,174,0.0,0.0,86,0.00,,,0.01,weatherlink.com 1.10,2013-03-08 14:48:00,
2013-03-08 16:03:00,58.8,54.0,29.67,South,179,0.0,0.0,85,0.00,,,0.01,weatherlink.com 1.10,2013-03-08 15:03:00,
2013-03-08 16:18:00,59.4,55.0,29.68,South,174,0.0,0.0,84,0.00,,,0.01,weatherlink.com 1.10,2013-03-08 15:18:00,
2013-03-08 16:33:00,59.4,55.0,29.68,South,180,0.0,1.0,85,0.00,,,0.01,weatherlink.com 1.10,2013-03-08 15:33:00,
2013-03-08 16:48:00,59.3,55.0,29.69,South,182,0.0,1.0,85,0.00,,,0.01,weatherlink.com 1.10,2013-03-08 15:48:00,
2013-03-08 17:03:00,59.3,56.0,29.69,South,172,0.0,0.0,87,0.00,,,0.01,weatherlink.com 1.10,2013-03-08 16:03:00,
2013-03-08 17:18:00,59.0,56.0,29.69,South,174,0.0,0.0,88,0.00,,,0.01,weatherlink.com 1.10,2013-03-08 16:18:00,
2013-03-08 17:33:00,58.7,55.0,29.70,South,171,0.0,0.0,88,0.00,,,0.01,weatherlink.com 1.10,2013-03-08 16:33:00,
2013-03-08 17:49:00,58.5,55.0,29.69,South,173,0.0,1.0,89,0.00,,,0.01,weatherlink.com 1.10,2013-03-08 16:49:00,
2013-03-08 18:04:00,58.0,55.0,29.70,South,175,0.0,1.0,91,0.00,,,0.01,weatherlink.com 1.10,2013-03-08 17:04:00,
2013-03-08 18:19:00,57.5,55.0,29.70,South,174,0.0,1.0,91,0.00,,,0.01,weatherlink.com 1.10,2013-03-08 17:19:00,
2013-03-08 18:34:00,56.8,55.0,29.70,South,174,0.0,1.0,93,0.00,,,0.01,weatherlink.com 1.10,2013-03-08 17:34:00,
2013-03-08 18:49:00,56.6,55.0,29.70,South,169,0.0,1.0,93,0.00,,,0.01,weatherlink.com 1.10,2013-03-08 17:49:00,
2013-03-08 19:04:00,56.6,55.0,29.71,South,177,0.0,0.0,94,0.01,,,0.02,weatherlink.com 1.10,2013-03-08 18:04:00,
2013-03-08 19:19:00,56.4,55.0,29.71,South,182,0.0,1.0,94,0.01,,,0.02,weatherlink.com 1.10,2013-03-08 18:19:00,
2013-03-08 19:34:00,56.3,55.0,29.71,SSW,195,0.0,1.0,95,0.01,,,0.02,weatherlink.com 1.10,2013-03-08 18:34:00,
2013-03-08 19:49:00,56.3,55.0,29.72,SSE,168,0.0,0.0,95,0.01,,,0.02,weatherlink.com 1.10,2013-03-08 18:49:00,
2013-03-08 20:04:00,56.1,55.0,29.72,South,173,0.0,0.0,95,0.00,,,0.02,weatherlink.com 1.10,2013-03-08 19:04:00,
2013-03-08 20:19:00,56.1,55.0,29.72,South,183,0.0,0.0,95,0.00,,,0.02,weatherlink.com 1.10,2013-03-08 19:19:00,
2013-03-08 20:34:00,56.3,54.0,29.73,South,180,0.0,2.0,93,0.00,,,0.02,weatherlink.com 1.10,2013-03-08 19:34:00,
2013-03-08 20:49:00,56.2,53.0,29.73,South,182,0.0,1.0,90,0.00,,,0.02,weatherlink.com 1.10,2013-03-08 19:49:00,
2013-03-08 21:04:00,56.2,53.0,29.73,SSE,164,0.0,1.0,88,0.00,,,0.02,weatherlink.com 1.10,2013-03-08 20:04:00,
2013-03-08 21:19:00,56.1,53.0,29.73,South,190,0.0,0.0,89,0.00,,,0.02,weatherlink.com 1.10,2013-03-08 20:19:00,
2013-03-08 21:34:00,55.8,53.0,29.73,South,181,0.0,0.0,89,0.00,,,0.02,weatherlink.com 1.10,2013-03-08 20:34:00,
2013-03-08 21:49:00,55.8,53.0,29.73,South,179,0.0,0.0,90,0.00,,,0.02,weatherlink.com 1.10,2013-03-08 20:49:00,
2013-03-08 22:04:00,55.8,53.0,29.73,South,173,0.0,0.0,89,0.00,,,0.02,weatherlink.com 1.10,2013-03-08 21:04:00,
2013-03-08 22:19:00,55.8,53.0,29.73,South,169,0.0,0.0,89,0.00,,,0.02,weatherlink.com 1.10,2013-03-08 21:19:00,
2013-03-08 22:34:00,55.7,53.0,29.74,South,171,0.0,0.0,90,0.00,,,0.02,weatherlink.com 1.10,2013-03-08 21:34:00,
2013-03-08 22:49:00,55.7,53.0,29.74,South,170,0.0,0.0,90,0.00,,,0.02,weatherlink.com 1.10,2013-03-08 21:49:00,
2013-03-08 23:04:00,55.7,53.0,29.73,South,179,0.0,0.0,90,0.00,,,0.02,weatherlink.com 1.10,2013-03-08 22:04:00,
2013-03-08 23:19:00,55.6,53.0,29.73,South,176,0.0,0.0,90,0.00,,,0.02,weatherlink.com 1.10,2013-03-08 22:19:00,
2013-03-08 23:34:00,55.5,53.0,29.73,South,177,0.0,0.0,90,0.00,,,0.02,weatherlink.com 1.10,2013-03-08 22:34:00,
2013-03-08 23:49:00,55.3,53.0,29.73,SSE,164,0.0,0.0,91,0.00,,,0.02,weatherlink.com 1.10,2013-03-08 22:49:00,